sensor_id;sensor_type;location;lat;lon;timestamp;P1;durP1;ratioP1;P2;durP2;ratioP2
25531;SDS011;13429;48.816;9.118;2022-09-28T00:00:05;2.40;;;0.95;;
25531;SDS011;13429;48.816;9.118;2022-09-28T00:02:31;2.00;;;0.60;;
25531;SDS011;13429;48.816;9.118;2022-09-28T00:04:58;2.13;;;0.75;;
25531;SDS011;13429;48.816;9.118;2022-09-28T00:07:24;1.17;;;0.65;;
25531;SDS011;13429;48.816;9.118;2022-09-28T00:09:50;0.88;;;0.57;;
25531;SDS011;13429;48.816;9.118;2022-09-28T00:12:16;3.55;;;0.90;;
25531;SDS011;13429;48.816;9.118;2022-09-28T00:14:42;4.65;;;0.60;;
25531;SDS011;13429;48.816;9.118;2022-09-28T00:17:09;2.22;;;1.13;;
25531;SDS011;13429;48.816;9.118;2022-09-28T00:19:36;1.58;;;0.75;;
25531;SDS011;13429;48.816;9.118;2022-09-28T00:22:04;1.33;;;0.70;;
25531;SDS011;13429;48.816;9.118;2022-09-28T00:24:29;5.88;;;1.20;;
25531;SDS011;13429;48.816;9.118;2022-09-28T00:26:56;2.10;;;0.90;;
25531;SDS011;13429;48.816;9.118;2022-09-28T00:29:25;5.57;;;1.20;;
25531;SDS011;13429;48.816;9.118;2022-09-28T00:31:52;1.15;;;0.60;;
25531;SDS011;13429;48.816;9.118;2022-09-28T00:34:23;2.53;;;1.00;;
25531;SDS011;13429;48.816;9.118;2022-09-28T00:36:50;1.25;;;0.80;;
25531;SDS011;13429;48.816;9.118;2022-09-28T00:39:16;2.88;;;0.80;;
25531;SDS011;13429;48.816;9.118;2022-09-28T00:41:43;0.88;;;0.57;;
25531;SDS011;13429;48.816;9.118;2022-09-28T00:44:26;3.35;;;0.90;;
25531;SDS011;13429;48.816;9.118;2022-09-28T00:47:00;3.33;;;1.02;;
25531;SDS011;13429;48.816;9.118;2022-09-28T00:51:53;3.17;;;0.90;;
25531;SDS011;13429;48.816;9.118;2022-09-28T00:54:19;3.28;;;1.20;;
25531;SDS011;13429;48.816;9.118;2022-09-28T00:56:45;2.60;;;0.82;;
25531;SDS011;13429;48.816;9.118;2022-09-28T00:59:12;3.22;;;0.88;;
25531;SDS011;13429;48.816;9.118;2022-09-28T01:01:39;4.07;;;0.90;;
25531;SDS011;13429;48.816;9.118;2022-09-28T01:04:05;4.88;;;0.63;;
25531;SDS011;13429;48.816;9.118;2022-09-28T01:06:32;3.78;;;0.98;;
25531;SDS011;13429;48.816;9.118;2022-09-28T01:09:02;6.05;;;1.10;;
25531;SDS011;13429;48.816;9.118;2022-09-28T01:11:30;2.28;;;0.60;;
25531;SDS011;13429;48.816;9.118;2022-09-28T01:13:56;3.08;;;0.65;;
25531;SDS011;13429;48.816;9.118;2022-09-28T01:16:36;4.05;;;0.80;;
25531;SDS011;13429;48.816;9.118;2022-09-28T01:19:17;2.15;;;0.50;;
25531;SDS011;13429;48.816;9.118;2022-09-28T01:21:49;3.08;;;0.77;;
25531;SDS011;13429;48.816;9.118;2022-09-28T01:24:26;1.20;;;0.60;;
25531;SDS011;13429;48.816;9.118;2022-09-28T01:27:12;1.15;;;0.50;;
25531;SDS011;13429;48.816;9.118;2022-09-28T01:29:47;1.33;;;0.80;;
25531;SDS011;13429;48.816;9.118;2022-09-28T01:32:31;1.88;;;0.70;;
25531;SDS011;13429;48.816;9.118;2022-09-28T01:35:04;1.60;;;0.75;;
25531;SDS011;13429;48.816;9.118;2022-09-28T01:37:55;2.88;;;0.90;;
25531;SDS011;13429;48.816;9.118;2022-09-28T01:40:19;3.03;;;0.88;;
25531;SDS011;13429;48.816;9.118;2022-09-28T01:42:47;1.83;;;0.68;;
25531;SDS011;13429;48.816;9.118;2022-09-28T01:45:19;5.13;;;1.15;;
25531;SDS011;13429;48.816;9.118;2022-09-28T01:47:47;3.40;;;0.70;;
25531;SDS011;13429;48.816;9.118;2022-09-28T01:50:16;4.22;;;1.27;;
25531;SDS011;13429;48.816;9.118;2022-09-28T01:52:50;3.88;;;1.27;;
25531;SDS011;13429;48.816;9.118;2022-09-28T01:55:22;1.73;;;1.00;;
25531;SDS011;13429;48.816;9.118;2022-09-28T01:57:50;3.95;;;1.15;;
25531;SDS011;13429;48.816;9.118;2022-09-28T02:00:19;4.13;;;1.45;;
25531;SDS011;13429;48.816;9.118;2022-09-28T02:02:53;5.53;;;1.35;;
25531;SDS011;13429;48.816;9.118;2022-09-28T02:05:21;6.50;;;1.27;;
25531;SDS011;13429;48.816;9.118;2022-09-28T02:10:22;5.88;;;1.38;;
25531;SDS011;13429;48.816;9.118;2022-09-28T02:12:50;6.20;;;1.33;;
25531;SDS011;13429;48.816;9.118;2022-09-28T02:15:19;4.07;;;1.38;;
25531;SDS011;13429;48.816;9.118;2022-09-28T02:17:45;6.00;;;1.15;;
25531;SDS011;13429;48.816;9.118;2022-09-28T02:20:11;10.43;;;1.58;;
25531;SDS011;13429;48.816;9.118;2022-09-28T02:22:42;4.60;;;2.08;;
25531;SDS011;13429;48.816;9.118;2022-09-28T02:25:10;5.47;;;1.20;;
25531;SDS011;13429;48.816;9.118;2022-09-28T02:27:40;7.25;;;1.42;;
25531;SDS011;13429;48.816;9.118;2022-09-28T02:30:07;3.55;;;1.15;;
25531;SDS011;13429;48.816;9.118;2022-09-28T02:32:34;7.20;;;1.70;;
25531;SDS011;13429;48.816;9.118;2022-09-28T02:35:05;9.18;;;1.75;;
25531;SDS011;13429;48.816;9.118;2022-09-28T02:37:31;7.28;;;1.40;;
25531;SDS011;13429;48.816;9.118;2022-09-28T02:39:57;4.65;;;1.17;;
25531;SDS011;13429;48.816;9.118;2022-09-28T02:42:24;4.00;;;1.33;;
25531;SDS011;13429;48.816;9.118;2022-09-28T02:50:14;3.95;;;1.40;;
25531;SDS011;13429;48.816;9.118;2022-09-28T02:52:48;6.97;;;1.25;;
25531;SDS011;13429;48.816;9.118;2022-09-28T02:55:22;6.57;;;1.20;;
25531;SDS011;13429;48.816;9.118;2022-09-28T03:00:28;5.70;;;1.60;;
25531;SDS011;13429;48.816;9.118;2022-09-28T03:05:43;2.60;;;1.05;;
25531;SDS011;13429;48.816;9.118;2022-09-28T03:08:26;6.22;;;1.55;;
25531;SDS011;13429;48.816;9.118;2022-09-28T03:10:55;2.88;;;1.23;;
25531;SDS011;13429;48.816;9.118;2022-09-28T03:13:23;5.10;;;1.25;;
25531;SDS011;13429;48.816;9.118;2022-09-28T03:15:50;6.57;;;1.50;;
25531;SDS011;13429;48.816;9.118;2022-09-28T03:18:16;4.70;;;1.27;;
25531;SDS011;13429;48.816;9.118;2022-09-28T03:20:42;7.10;;;1.50;;
25531;SDS011;13429;48.816;9.118;2022-09-28T03:23:08;7.90;;;1.25;;
25531;SDS011;13429;48.816;9.118;2022-09-28T03:25:34;3.75;;;1.10;;
25531;SDS011;13429;48.816;9.118;2022-09-28T03:28:00;6.32;;;1.30;;
25531;SDS011;13429;48.816;9.118;2022-09-28T03:30:26;6.80;;;1.95;;
25531;SDS011;13429;48.816;9.118;2022-09-28T03:32:56;7.72;;;1.42;;
25531;SDS011;13429;48.816;9.118;2022-09-28T03:35:23;2.78;;;1.20;;
25531;SDS011;13429;48.816;9.118;2022-09-28T03:40:53;4.43;;;1.20;;
25531;SDS011;13429;48.816;9.118;2022-09-28T03:43:19;4.85;;;1.48;;
25531;SDS011;13429;48.816;9.118;2022-09-28T03:45:55;3.92;;;1.13;;
25531;SDS011;13429;48.816;9.118;2022-09-28T03:48:22;4.47;;;1.25;;
25531;SDS011;13429;48.816;9.118;2022-09-28T03:50:52;1.77;;;0.55;;
25531;SDS011;13429;48.816;9.118;2022-09-28T03:53:18;3.50;;;0.70;;
25531;SDS011;13429;48.816;9.118;2022-09-28T03:55:45;6.35;;;1.08;;
25531;SDS011;13429;48.816;9.118;2022-09-28T03:58:11;4.25;;;0.93;;
25531;SDS011;13429;48.816;9.118;2022-09-28T04:00:37;2.67;;;0.85;;
25531;SDS011;13429;48.816;9.118;2022-09-28T04:03:03;3.35;;;0.85;;
25531;SDS011;13429;48.816;9.118;2022-09-28T04:05:29;6.50;;;0.95;;
25531;SDS011;13429;48.816;9.118;2022-09-28T04:07:55;1.38;;;0.47;;
25531;SDS011;13429;48.816;9.118;2022-09-28T04:10:22;2.25;;;1.15;;
25531;SDS011;13429;48.816;9.118;2022-09-28T04:12:48;4.38;;;1.40;;
25531;SDS011;13429;48.816;9.118;2022-09-28T04:15:14;4.10;;;0.88;;
25531;SDS011;13429;48.816;9.118;2022-09-28T04:17:42;4.15;;;1.00;;
25531;SDS011;13429;48.816;9.118;2022-09-28T04:20:08;3.28;;;0.95;;
25531;SDS011;13429;48.816;9.118;2022-09-28T04:22:34;3.88;;;1.08;;
25531;SDS011;13429;48.816;9.118;2022-09-28T04:25:01;1.33;;;0.55;;
25531;SDS011;13429;48.816;9.118;2022-09-28T04:27:27;2.38;;;0.93;;
25531;SDS011;13429;48.816;9.118;2022-09-28T04:30:12;3.20;;;1.35;;
25531;SDS011;13429;48.816;9.118;2022-09-28T04:32:38;3.58;;;0.60;;
25531;SDS011;13429;48.816;9.118;2022-09-28T04:35:04;1.45;;;0.60;;
25531;SDS011;13429;48.816;9.118;2022-09-28T04:37:30;2.67;;;0.68;;
25531;SDS011;13429;48.816;9.118;2022-09-28T04:39:57;1.33;;;0.40;;
25531;SDS011;13429;48.816;9.118;2022-09-28T04:42:23;5.13;;;0.50;;
25531;SDS011;13429;48.816;9.118;2022-09-28T04:44:49;4.18;;;0.70;;
25531;SDS011;13429;48.816;9.118;2022-09-28T04:47:15;4.00;;;0.70;;
25531;SDS011;13429;48.816;9.118;2022-09-28T04:49:41;1.33;;;0.60;;
25531;SDS011;13429;48.816;9.118;2022-09-28T04:52:07;5.10;;;1.85;;
25531;SDS011;13429;48.816;9.118;2022-09-28T04:54:33;2.42;;;0.85;;
25531;SDS011;13429;48.816;9.118;2022-09-28T04:56:59;3.40;;;0.80;;
25531;SDS011;13429;48.816;9.118;2022-09-28T04:59:27;4.13;;;1.42;;
25531;SDS011;13429;48.816;9.118;2022-09-28T05:01:53;0.57;;;0.30;;
25531;SDS011;13429;48.816;9.118;2022-09-28T05:04:19;1.05;;;0.40;;
25531;SDS011;13429;48.816;9.118;2022-09-28T05:06:45;3.72;;;0.65;;
25531;SDS011;13429;48.816;9.118;2022-09-28T05:09:10;2.05;;;0.60;;
25531;SDS011;13429;48.816;9.118;2022-09-28T05:11:36;1.60;;;0.75;;
25531;SDS011;13429;48.816;9.118;2022-09-28T05:14:02;2.53;;;0.80;;
25531;SDS011;13429;48.816;9.118;2022-09-28T05:16:29;2.83;;;0.90;;
25531;SDS011;13429;48.816;9.118;2022-09-28T05:18:57;2.38;;;1.05;;
25531;SDS011;13429;48.816;9.118;2022-09-28T05:21:24;2.00;;;0.73;;
25531;SDS011;13429;48.816;9.118;2022-09-28T05:23:52;0.75;;;0.50;;
25531;SDS011;13429;48.816;9.118;2022-09-28T05:26:20;1.02;;;0.60;;
25531;SDS011;13429;48.816;9.118;2022-09-28T05:28:46;2.83;;;1.08;;
25531;SDS011;13429;48.816;9.118;2022-09-28T05:31:12;2.90;;;1.00;;
25531;SDS011;13429;48.816;9.118;2022-09-28T05:33:38;4.75;;;0.88;;
25531;SDS011;13429;48.816;9.118;2022-09-28T05:36:07;2.70;;;0.77;;
25531;SDS011;13429;48.816;9.118;2022-09-28T05:38:33;2.20;;;0.60;;
25531;SDS011;13429;48.816;9.118;2022-09-28T05:40:58;1.55;;;0.68;;
25531;SDS011;13429;48.816;9.118;2022-09-28T05:43:24;4.47;;;0.90;;
25531;SDS011;13429;48.816;9.118;2022-09-28T05:45:50;2.75;;;0.90;;
25531;SDS011;13429;48.816;9.118;2022-09-28T05:48:16;2.60;;;0.70;;
25531;SDS011;13429;48.816;9.118;2022-09-28T05:50:42;2.45;;;0.80;;
25531;SDS011;13429;48.816;9.118;2022-09-28T05:53:08;1.63;;;0.80;;
25531;SDS011;13429;48.816;9.118;2022-09-28T05:55:35;2.88;;;0.80;;
25531;SDS011;13429;48.816;9.118;2022-09-28T05:58:02;3.40;;;0.70;;
25531;SDS011;13429;48.816;9.118;2022-09-28T06:00:28;4.63;;;1.17;;
25531;SDS011;13429;48.816;9.118;2022-09-28T06:02:55;3.33;;;0.80;;
25531;SDS011;13429;48.816;9.118;2022-09-28T06:05:22;2.35;;;0.82;;
25531;SDS011;13429;48.816;9.118;2022-09-28T06:07:48;1.33;;;0.63;;
25531;SDS011;13429;48.816;9.118;2022-09-28T06:10:14;4.97;;;1.10;;
25531;SDS011;13429;48.816;9.118;2022-09-28T06:12:39;3.42;;;1.20;;
25531;SDS011;13429;48.816;9.118;2022-09-28T06:15:06;2.90;;;1.02;;
25531;SDS011;13429;48.816;9.118;2022-09-28T06:17:32;3.58;;;0.95;;
25531;SDS011;13429;48.816;9.118;2022-09-28T06:19:58;3.58;;;1.13;;
25531;SDS011;13429;48.816;9.118;2022-09-28T06:22:24;3.38;;;1.35;;
25531;SDS011;13429;48.816;9.118;2022-09-28T06:24:50;4.90;;;1.58;;
25531;SDS011;13429;48.816;9.118;2022-09-28T06:27:16;3.47;;;1.65;;
25531;SDS011;13429;48.816;9.118;2022-09-28T06:29:42;1.88;;;1.05;;
25531;SDS011;13429;48.816;9.118;2022-09-28T06:32:08;7.03;;;1.45;;
25531;SDS011;13429;48.816;9.118;2022-09-28T06:34:36;2.70;;;1.13;;
25531;SDS011;13429;48.816;9.118;2022-09-28T06:37:02;3.75;;;1.33;;
25531;SDS011;13429;48.816;9.118;2022-09-28T06:39:28;4.03;;;1.60;;
25531;SDS011;13429;48.816;9.118;2022-09-28T06:41:54;9.52;;;5.47;;
25531;SDS011;13429;48.816;9.118;2022-09-28T06:44:20;6.38;;;3.47;;
25531;SDS011;13429;48.816;9.118;2022-09-28T06:46:46;5.43;;;2.53;;
25531;SDS011;13429;48.816;9.118;2022-09-28T06:49:12;7.18;;;3.03;;
25531;SDS011;13429;48.816;9.118;2022-09-28T06:51:38;7.63;;;2.67;;
25531;SDS011;13429;48.816;9.118;2022-09-28T06:54:04;9.20;;;4.80;;
25531;SDS011;13429;48.816;9.118;2022-09-28T06:56:30;6.57;;;3.15;;
25531;SDS011;13429;48.816;9.118;2022-09-28T06:58:56;12.02;;;5.80;;
25531;SDS011;13429;48.816;9.118;2022-09-28T07:01:22;13.00;;;5.38;;
25531;SDS011;13429;48.816;9.118;2022-09-28T07:03:48;8.20;;;3.83;;
25531;SDS011;13429;48.816;9.118;2022-09-28T07:06:13;13.90;;;5.32;;
25531;SDS011;13429;48.816;9.118;2022-09-28T07:08:40;13.25;;;6.70;;
25531;SDS011;13429;48.816;9.118;2022-09-28T07:11:07;11.10;;;5.95;;
25531;SDS011;13429;48.816;9.118;2022-09-28T07:13:33;9.27;;;4.55;;
25531;SDS011;13429;48.816;9.118;2022-09-28T07:15:59;8.00;;;3.67;;
25531;SDS011;13429;48.816;9.118;2022-09-28T07:18:25;6.55;;;3.42;;
25531;SDS011;13429;48.816;9.118;2022-09-28T07:20:53;9.68;;;3.70;;
25531;SDS011;13429;48.816;9.118;2022-09-28T07:23:21;10.05;;;3.40;;
25531;SDS011;13429;48.816;9.118;2022-09-28T07:25:47;8.10;;;3.30;;
25531;SDS011;13429;48.816;9.118;2022-09-28T07:28:14;6.38;;;2.85;;
25531;SDS011;13429;48.816;9.118;2022-09-28T07:30:41;8.02;;;2.80;;
25531;SDS011;13429;48.816;9.118;2022-09-28T07:33:12;5.00;;;2.40;;
25531;SDS011;13429;48.816;9.118;2022-09-28T07:35:38;10.45;;;3.92;;
25531;SDS011;13429;48.816;9.118;2022-09-28T07:38:06;5.88;;;2.80;;
25531;SDS011;13429;48.816;9.118;2022-09-28T07:40:32;7.93;;;4.03;;
25531;SDS011;13429;48.816;9.118;2022-09-28T07:43:17;7.38;;;2.85;;
25531;SDS011;13429;48.816;9.118;2022-09-28T07:45:50;7.75;;;3.53;;
25531;SDS011;13429;48.816;9.118;2022-09-28T07:48:16;5.97;;;2.90;;
25531;SDS011;13429;48.816;9.118;2022-09-28T07:50:46;8.18;;;3.28;;
25531;SDS011;13429;48.816;9.118;2022-09-28T07:53:13;8.63;;;3.30;;
25531;SDS011;13429;48.816;9.118;2022-09-28T07:55:39;10.88;;;4.57;;
25531;SDS011;13429;48.816;9.118;2022-09-28T07:58:05;9.35;;;4.10;;
25531;SDS011;13429;48.816;9.118;2022-09-28T08:00:31;7.53;;;4.05;;
25531;SDS011;13429;48.816;9.118;2022-09-28T08:03:00;10.15;;;4.50;;
25531;SDS011;13429;48.816;9.118;2022-09-28T08:05:27;9.40;;;3.38;;
25531;SDS011;13429;48.816;9.118;2022-09-28T08:07:55;6.93;;;3.60;;
25531;SDS011;13429;48.816;9.118;2022-09-28T08:10:22;6.22;;;3.20;;
25531;SDS011;13429;48.816;9.118;2022-09-28T08:12:52;11.18;;;3.88;;
25531;SDS011;13429;48.816;9.118;2022-09-28T08:15:18;8.55;;;3.17;;
25531;SDS011;13429;48.816;9.118;2022-09-28T08:17:45;11.00;;;3.47;;
25531;SDS011;13429;48.816;9.118;2022-09-28T08:20:12;5.25;;;2.50;;
25531;SDS011;13429;48.816;9.118;2022-09-28T08:23:01;5.72;;;2.45;;
25531;SDS011;13429;48.816;9.118;2022-09-28T08:25:27;6.20;;;2.65;;
25531;SDS011;13429;48.816;9.118;2022-09-28T08:27:53;5.20;;;2.30;;
25531;SDS011;13429;48.816;9.118;2022-09-28T08:30:20;10.43;;;2.90;;
25531;SDS011;13429;48.816;9.118;2022-09-28T08:32:46;7.53;;;3.28;;
25531;SDS011;13429;48.816;9.118;2022-09-28T08:35:15;9.88;;;4.22;;
25531;SDS011;13429;48.816;9.118;2022-09-28T08:37:41;19.05;;;9.68;;
25531;SDS011;13429;48.816;9.118;2022-09-28T08:40:11;8.88;;;4.00;;
25531;SDS011;13429;48.816;9.118;2022-09-28T08:42:38;7.97;;;3.33;;
25531;SDS011;13429;48.816;9.118;2022-09-28T08:45:17;8.68;;;3.33;;
25531;SDS011;13429;48.816;9.118;2022-09-28T08:50:32;5.95;;;3.72;;
25531;SDS011;13429;48.816;9.118;2022-09-28T08:53:01;8.23;;;3.60;;
25531;SDS011;13429;48.816;9.118;2022-09-28T08:55:32;4.97;;;2.28;;
25531;SDS011;13429;48.816;9.118;2022-09-28T08:58:13;3.65;;;2.60;;
25531;SDS011;13429;48.816;9.118;2022-09-28T09:00:46;7.35;;;2.72;;
25531;SDS011;13429;48.816;9.118;2022-09-28T09:03:13;7.95;;;2.28;;
25531;SDS011;13429;48.816;9.118;2022-09-28T09:10:57;6.05;;;2.47;;
25531;SDS011;13429;48.816;9.118;2022-09-28T09:13:34;8.50;;;2.45;;
25531;SDS011;13429;48.816;9.118;2022-09-28T09:16:22;8.65;;;2.65;;
25531;SDS011;13429;48.816;9.118;2022-09-28T09:19:33;7.53;;;2.30;;
25531;SDS011;13429;48.816;9.118;2022-09-28T09:22:01;2.90;;;1.83;;
25531;SDS011;13429;48.816;9.118;2022-09-28T09:24:40;7.85;;;2.45;;
25531;SDS011;13429;48.816;9.118;2022-09-28T09:27:30;6.70;;;2.30;;
25531;SDS011;13429;48.816;9.118;2022-09-28T09:33:26;3.13;;;1.83;;
25531;SDS011;13429;48.816;9.118;2022-09-28T09:43:42;6.40;;;2.35;;
25531;SDS011;13429;48.816;9.118;2022-09-28T09:54:27;5.82;;;2.38;;
25531;SDS011;13429;48.816;9.118;2022-09-28T09:59:25;8.40;;;2.30;;
25531;SDS011;13429;48.816;9.118;2022-09-28T10:01:52;10.50;;;4.55;;
25531;SDS011;13429;48.816;9.118;2022-09-28T10:04:24;8.38;;;3.95;;
25531;SDS011;13429;48.816;9.118;2022-09-28T10:09:27;7.35;;;2.78;;
25531;SDS011;13429;48.816;9.118;2022-09-28T10:11:55;19.00;;;8.73;;
25531;SDS011;13429;48.816;9.118;2022-09-28T10:14:22;12.15;;;5.40;;
25531;SDS011;13429;48.816;9.118;2022-09-28T10:16:49;13.23;;;8.50;;
25531;SDS011;13429;48.816;9.118;2022-09-28T10:19:16;8.35;;;4.45;;
25531;SDS011;13429;48.816;9.118;2022-09-28T10:21:43;10.48;;;3.92;;
25531;SDS011;13429;48.816;9.118;2022-09-28T10:24:13;5.85;;;3.50;;
25531;SDS011;13429;48.816;9.118;2022-09-28T10:26:40;11.25;;;5.53;;
25531;SDS011;13429;48.816;9.118;2022-09-28T10:29:13;8.35;;;2.90;;
25531;SDS011;13429;48.816;9.118;2022-09-28T10:31:41;5.20;;;2.67;;
25531;SDS011;13429;48.816;9.118;2022-09-28T10:34:07;4.88;;;2.25;;
25531;SDS011;13429;48.816;9.118;2022-09-28T10:39:24;10.15;;;2.03;;
25531;SDS011;13429;48.816;9.118;2022-09-28T10:41:51;3.47;;;1.85;;
25531;SDS011;13429;48.816;9.118;2022-09-28T10:44:17;11.35;;;2.58;;
25531;SDS011;13429;48.816;9.118;2022-09-28T10:46:44;3.58;;;2.15;;
25531;SDS011;13429;48.816;9.118;2022-09-28T10:49:20;2.55;;;1.88;;
25531;SDS011;13429;48.816;9.118;2022-09-28T10:51:53;3.78;;;1.85;;
25531;SDS011;13429;48.816;9.118;2022-09-28T10:54:21;3.92;;;1.38;;
25531;SDS011;13429;48.816;9.118;2022-09-28T10:56:48;5.47;;;2.03;;
25531;SDS011;13429;48.816;9.118;2022-09-28T10:59:21;3.38;;;1.75;;
25531;SDS011;13429;48.816;9.118;2022-09-28T11:01:50;4.60;;;1.83;;
25531;SDS011;13429;48.816;9.118;2022-09-28T11:04:18;11.00;;;1.75;;
25531;SDS011;13429;48.816;9.118;2022-09-28T11:06:45;6.60;;;1.55;;
25531;SDS011;13429;48.816;9.118;2022-09-28T11:14:53;6.25;;;1.80;;
25531;SDS011;13429;48.816;9.118;2022-09-28T11:19:42;3.55;;;1.65;;
25531;SDS011;13429;48.816;9.118;2022-09-28T11:24:47;4.63;;;1.83;;
25531;SDS011;13429;48.816;9.118;2022-09-28T11:27:23;4.20;;;1.67;;
25531;SDS011;13429;48.816;9.118;2022-09-28T11:32:40;9.13;;;1.88;;
25531;SDS011;13429;48.816;9.118;2022-09-28T11:35:13;8.38;;;2.00;;
25531;SDS011;13429;48.816;9.118;2022-09-28T11:40:22;3.58;;;1.40;;
25531;SDS011;13429;48.816;9.118;2022-09-28T11:43:00;6.53;;;1.77;;
25531;SDS011;13429;48.816;9.118;2022-09-28T11:45:31;4.47;;;1.30;;
25531;SDS011;13429;48.816;9.118;2022-09-28T11:47:58;4.45;;;1.48;;
25531;SDS011;13429;48.816;9.118;2022-09-28T11:50:28;3.22;;;1.50;;
25531;SDS011;13429;48.816;9.118;2022-09-28T11:55:23;6.22;;;1.30;;
25531;SDS011;13429;48.816;9.118;2022-09-28T11:57:53;3.15;;;1.73;;
25531;SDS011;13429;48.816;9.118;2022-09-28T12:00:21;2.17;;;1.23;;
25531;SDS011;13429;48.816;9.118;2022-09-28T12:03:04;5.22;;;1.40;;
25531;SDS011;13429;48.816;9.118;2022-09-28T12:05:43;4.43;;;1.50;;
25531;SDS011;13429;48.816;9.118;2022-09-28T12:08:17;4.80;;;1.83;;
25531;SDS011;13429;48.816;9.118;2022-09-28T12:13:13;4.18;;;1.40;;
25531;SDS011;13429;48.816;9.118;2022-09-28T12:18:22;9.45;;;1.83;;
25531;SDS011;13429;48.816;9.118;2022-09-28T12:20:52;3.38;;;1.05;;
25531;SDS011;13429;48.816;9.118;2022-09-28T12:23:23;4.05;;;1.30;;
25531;SDS011;13429;48.816;9.118;2022-09-28T12:25:53;2.90;;;0.98;;
25531;SDS011;13429;48.816;9.118;2022-09-28T12:28:39;4.53;;;1.60;;
25531;SDS011;13429;48.816;9.118;2022-09-28T12:31:28;4.03;;;1.33;;
25531;SDS011;13429;48.816;9.118;2022-09-28T12:33:52;4.22;;;1.15;;
25531;SDS011;13429;48.816;9.118;2022-09-28T12:39:14;4.25;;;1.20;;
25531;SDS011;13429;48.816;9.118;2022-09-28T12:42:48;3.53;;;1.30;;
25531;SDS011;13429;48.816;9.118;2022-09-28T12:48:09;4.18;;;1.52;;
25531;SDS011;13429;48.816;9.118;2022-09-28T12:55:37;3.90;;;1.23;;
25531;SDS011;13429;48.816;9.118;2022-09-28T13:03:19;7.30;;;1.00;;
25531;SDS011;13429;48.816;9.118;2022-09-28T13:08:45;2.28;;;1.00;;
25531;SDS011;13429;48.816;9.118;2022-09-28T13:14:13;2.45;;;1.20;;
25531;SDS011;13429;48.816;9.118;2022-09-28T13:24:27;4.30;;;1.27;;
25531;SDS011;13429;48.816;9.118;2022-09-28T13:26:55;3.40;;;1.30;;
25531;SDS011;13429;48.816;9.118;2022-09-28T13:29:23;3.00;;;1.02;;
25531;SDS011;13429;48.816;9.118;2022-09-28T13:31:52;4.03;;;0.80;;
25531;SDS011;13429;48.816;9.118;2022-09-28T13:34:26;2.10;;;0.85;;
25531;SDS011;13429;48.816;9.118;2022-09-28T13:42:57;2.15;;;1.00;;
25531;SDS011;13429;48.816;9.118;2022-09-28T13:58:34;2.40;;;0.88;;
25531;SDS011;13429;48.816;9.118;2022-09-28T14:16:35;2.35;;;1.00;;
25531;SDS011;13429;48.816;9.118;2022-09-28T14:19:03;3.80;;;1.38;;
25531;SDS011;13429;48.816;9.118;2022-09-28T14:29:29;2.90;;;1.05;;
25531;SDS011;13429;48.816;9.118;2022-09-28T14:32:44;2.83;;;0.80;;
25531;SDS011;13429;48.816;9.118;2022-09-28T14:34:44;2.50;;;0.73;;
25531;SDS011;13429;48.816;9.118;2022-09-28T14:40:51;2.72;;;0.73;;
25531;SDS011;13429;48.816;9.118;2022-09-28T14:48:48;4.80;;;1.23;;
25531;SDS011;13429;48.816;9.118;2022-09-28T14:56:48;5.93;;;0.80;;
25531;SDS011;13429;48.816;9.118;2022-09-28T14:59:30;5.53;;;0.80;;
25531;SDS011;13429;48.816;9.118;2022-09-28T15:02:22;4.70;;;1.00;;
25531;SDS011;13429;48.816;9.118;2022-09-28T15:09:46;2.22;;;0.88;;
25531;SDS011;13429;48.816;9.118;2022-09-28T15:12:14;1.27;;;0.70;;
25531;SDS011;13429;48.816;9.118;2022-09-28T15:14:43;5.18;;;2.40;;
25531;SDS011;13429;48.816;9.118;2022-09-28T15:17:10;1.67;;;0.93;;
25531;SDS011;13429;48.816;9.118;2022-09-28T15:22:03;3.03;;;1.08;;
25531;SDS011;13429;48.816;9.118;2022-09-28T15:24:38;3.05;;;1.15;;
25531;SDS011;13429;48.816;9.118;2022-09-28T15:27:12;5.95;;;1.48;;
25531;SDS011;13429;48.816;9.118;2022-09-28T15:29:39;1.83;;;0.75;;
25531;SDS011;13429;48.816;9.118;2022-09-28T15:32:05;4.30;;;1.90;;
25531;SDS011;13429;48.816;9.118;2022-09-28T15:34:32;5.18;;;1.27;;
25531;SDS011;13429;48.816;9.118;2022-09-28T15:37:20;3.45;;;1.27;;
25531;SDS011;13429;48.816;9.118;2022-09-28T15:39:46;3.53;;;1.00;;
25531;SDS011;13429;48.816;9.118;2022-09-28T15:42:14;3.45;;;1.30;;
25531;SDS011;13429;48.816;9.118;2022-09-28T15:44:40;4.20;;;1.08;;
25531;SDS011;13429;48.816;9.118;2022-09-28T15:52:27;2.85;;;1.00;;
25531;SDS011;13429;48.816;9.118;2022-09-28T15:54:53;3.05;;;0.73;;
25531;SDS011;13429;48.816;9.118;2022-09-28T15:57:27;2.63;;;0.95;;
25531;SDS011;13429;48.816;9.118;2022-09-28T15:59:53;2.22;;;0.82;;
25531;SDS011;13429;48.816;9.118;2022-09-28T16:02:21;2.05;;;0.90;;
25531;SDS011;13429;48.816;9.118;2022-09-28T16:04:49;4.50;;;1.00;;
25531;SDS011;13429;48.816;9.118;2022-09-28T16:09:54;3.65;;;0.90;;
25531;SDS011;13429;48.816;9.118;2022-09-28T16:12:21;2.60;;;1.00;;
25531;SDS011;13429;48.816;9.118;2022-09-28T16:14:48;6.10;;;1.15;;
25531;SDS011;13429;48.816;9.118;2022-09-28T16:17:16;5.25;;;1.00;;
25531;SDS011;13429;48.816;9.118;2022-09-28T16:19:42;3.70;;;0.90;;
25531;SDS011;13429;48.816;9.118;2022-09-28T16:22:12;3.25;;;1.23;;
25531;SDS011;13429;48.816;9.118;2022-09-28T16:24:40;1.83;;;0.88;;
25531;SDS011;13429;48.816;9.118;2022-09-28T16:35:30;2.10;;;0.75;;
25531;SDS011;13429;48.816;9.118;2022-09-28T16:37:57;3.97;;;0.82;;
25531;SDS011;13429;48.816;9.118;2022-09-28T16:40:23;3.50;;;0.70;;
25531;SDS011;13429;48.816;9.118;2022-09-28T16:42:49;1.92;;;0.88;;
25531;SDS011;13429;48.816;9.118;2022-09-28T16:45:17;3.70;;;1.02;;
25531;SDS011;13429;48.816;9.118;2022-09-28T16:47:44;2.30;;;1.00;;
25531;SDS011;13429;48.816;9.118;2022-09-28T16:50:13;2.38;;;1.05;;
25531;SDS011;13429;48.816;9.118;2022-09-28T16:52:39;4.47;;;1.50;;
25531;SDS011;13429;48.816;9.118;2022-09-28T16:55:23;5.07;;;2.13;;
25531;SDS011;13429;48.816;9.118;2022-09-28T16:57:49;9.18;;;1.65;;
25531;SDS011;13429;48.816;9.118;2022-09-28T17:00:17;7.30;;;2.45;;
25531;SDS011;13429;48.816;9.118;2022-09-28T17:02:44;5.00;;;2.30;;
25531;SDS011;13429;48.816;9.118;2022-09-28T17:05:12;4.90;;;2.25;;
25531;SDS011;13429;48.816;9.118;2022-09-28T17:07:39;5.07;;;2.35;;
25531;SDS011;13429;48.816;9.118;2022-09-28T17:10:23;2.88;;;1.90;;
25531;SDS011;13429;48.816;9.118;2022-09-28T17:12:50;7.25;;;2.45;;
25531;SDS011;13429;48.816;9.118;2022-09-28T17:15:16;5.90;;;2.60;;
25531;SDS011;13429;48.816;9.118;2022-09-28T17:17:43;8.68;;;2.58;;
25531;SDS011;13429;48.816;9.118;2022-09-28T17:20:17;7.43;;;5.65;;
25531;SDS011;13429;48.816;9.118;2022-09-28T17:22:44;7.50;;;4.97;;
25531;SDS011;13429;48.816;9.118;2022-09-28T17:25:10;9.23;;;4.40;;
25531;SDS011;13429;48.816;9.118;2022-09-28T17:27:36;8.18;;;4.90;;
25531;SDS011;13429;48.816;9.118;2022-09-28T17:30:03;7.20;;;4.05;;
25531;SDS011;13429;48.816;9.118;2022-09-28T17:32:30;14.10;;;5.30;;
25531;SDS011;13429;48.816;9.118;2022-09-28T17:34:58;7.60;;;4.22;;
25531;SDS011;13429;48.816;9.118;2022-09-28T17:37:24;8.27;;;3.40;;
25531;SDS011;13429;48.816;9.118;2022-09-28T17:39:49;7.30;;;2.85;;
25531;SDS011;13429;48.816;9.118;2022-09-28T17:42:15;9.02;;;4.18;;
25531;SDS011;13429;48.816;9.118;2022-09-28T17:44:41;8.38;;;3.63;;
25531;SDS011;13429;48.816;9.118;2022-09-28T17:47:14;5.85;;;2.83;;
25531;SDS011;13429;48.816;9.118;2022-09-28T17:49:40;5.85;;;2.75;;
25531;SDS011;13429;48.816;9.118;2022-09-28T17:52:07;10.00;;;2.33;;
25531;SDS011;13429;48.816;9.118;2022-09-28T17:54:33;10.80;;;4.18;;
25531;SDS011;13429;48.816;9.118;2022-09-28T17:56:59;6.13;;;3.95;;
25531;SDS011;13429;48.816;9.118;2022-09-28T17:59:25;15.63;;;7.10;;
25531;SDS011;13429;48.816;9.118;2022-09-28T18:01:52;18.25;;;11.68;;
25531;SDS011;13429;48.816;9.118;2022-09-28T18:04:18;11.82;;;8.85;;